San Diego, California
Traffic Map
Current Weather Conditions
San Diego, California
Broken Clouds
Broken Clouds
63°
Feels Like: 63°
Wind Chill: 63° Ceiling: 4500
Heat Index: 63° Visibility: 10mi
Dew Point: 51° Wind: 7mph
Humidity: 65% Direction: 150° (SSE)
Pressure: 29.96in Gusts: 0mph
Raw Report DataKSAN 240751Z 15006KT 10SM FEW025 BKN045 17/11 A2996 RMK AO2 SLP146 T01720106 401940156
Traffic Incident Summary
Active as of:
Severity:
Category:
InformationThere was an issue retrieving the traffic information for this location. Please try a different location or try again shortly.
Advertisements
Track Severe Weather on mobile